Time;durP1;ratioP1;P1;durP2;ratioP2;P2;SDS_P1;SDS_P2;PMS_P1;PMS_P2;Temp;Humidity;BMP_temperature;BMP_pressure;BME280_temperature;BME280_humidity;BME280_pressure;Samples;Min_cycle;Max_cycle;Signal;HPM_P1;HPM_P2
2021/03/19 00:00:24;;;;;;;4.20;2.57;;;6.20;99.90;;;;;;4974054;28;20635;-79
2021/03/19 00:02:53;;;;;;;5.90;2.70;;;6.20;99.90;;;;;;4972888;28;20253;-77
2021/03/19 00:05:21;;;;;;;4.97;2.27;;;6.20;99.90;;;;;;4973935;28;20213;-74
2021/03/19 00:07:50;;;;;;;6.27;2.43;;;6.10;99.90;;;;;;4973402;28;20205;-77
2021/03/19 00:10:19;;;;;;;5.20;2.47;;;6.20;99.90;;;;;;4974120;28;20217;-77
2021/03/19 00:12:46;;;;;;;3.47;2.13;;;6.20;99.90;;;;;;4973207;28;20206;-73
2021/03/19 00:15:14;;;;;;;3.47;2.27;;;6.20;99.90;;;;;;4965700;28;20214;-77
2021/03/19 00:17:41;;;;;;;7.17;2.37;;;6.20;99.90;;;;;;4971345;28;20735;-77
2021/03/19 00:20:09;;;;;;;10.53;3.73;;;6.20;99.90;;;;;;4973851;28;20669;-78
2021/03/19 00:22:37;;;;;;;6.37;3.03;;;6.10;99.90;;;;;;4973474;28;20224;-77
2021/03/19 00:25:05;;;;;;;6.60;3.07;;;6.10;99.90;;;;;;4973936;28;20206;-76
2021/03/19 00:27:31;;;;;;;4.70;2.40;;;6.10;99.90;;;;;;4973019;28;20214;-77
2021/03/19 00:29:58;;;;;;;5.87;2.47;;;6.10;99.90;;;;;;4973301;28;20217;-80
2021/03/19 00:32:24;;;;;;;4.27;2.17;;;6.10;99.90;;;;;;4973463;28;20221;-80
2021/03/19 00:34:51;;;;;;;11.87;2.97;;;6.10;99.90;;;;;;4973308;28;20208;-73
2021/03/19 00:37:17;;;;;;;4.93;2.70;;;6.10;99.90;;;;;;4972650;28;20241;-80
2021/03/19 00:39:45;;;;;;;6.53;2.53;;;6.10;99.90;;;;;;4972739;28;20205;-73
2021/03/19 00:42:11;;;;;;;3.40;2.87;;;6.10;99.90;;;;;;4972647;28;20210;-76
2021/03/19 00:44:40;;;;;;;6.13;2.47;;;6.10;99.90;;;;;;4973432;28;20261;-73
2021/03/19 00:47:06;;;;;;;4.63;1.87;;;6.10;99.90;;;;;;4973476;28;20220;-74
2021/03/19 00:49:34;;;;;;;5.13;2.00;;;6.20;99.90;;;;;;4973900;28;20210;-77
2021/03/19 00:52:00;;;;;;;6.87;2.40;;;6.20;99.90;;;;;;4972588;28;20221;-83
2021/03/19 00:54:27;;;;;;;6.30;4.23;;;6.20;99.90;;;;;;4973627;28;20214;-78
2021/03/19 00:56:54;;;;;;;9.40;3.07;;;6.30;99.90;;;;;;4972838;28;20244;-82
2021/03/19 00:59:20;;;;;;;8.43;2.93;;;6.20;99.90;;;;;;4973191;28;20741;-76
2021/03/19 01:01:48;;;;;;;6.10;2.83;;;6.20;99.90;;;;;;4970139;28;20584;-75
2021/03/19 01:04:14;;;;;;;5.93;2.77;;;6.20;99.90;;;;;;4972675;28;20209;-73
2021/03/19 01:06:41;;;;;;;7.23;2.47;;;6.20;99.90;;;;;;4972671;28;20229;-73
2021/03/19 01:09:07;;;;;;;5.70;2.50;;;6.20;99.90;;;;;;4972701;28;20205;-73
2021/03/19 01:11:34;;;;;;;10.00;2.77;;;6.20;99.90;;;;;;4973127;28;20210;-74
2021/03/19 01:14:02;;;;;;;5.83;3.43;;;6.20;99.90;;;;;;4972031;28;20209;-75
2021/03/19 01:16:29;;;;;;;5.77;2.60;;;6.20;99.90;;;;;;4972770;28;20244;-72
2021/03/19 01:18:55;;;;;;;5.30;2.53;;;6.30;99.90;;;;;;4961213;28;20221;-75
2021/03/19 01:21:22;;;;;;;8.47;2.97;;;6.20;99.90;;;;;;4972405;28;20674;-76
2021/03/19 01:23:49;;;;;;;5.20;2.50;;;6.20;99.90;;;;;;4972463;28;20232;-72
2021/03/19 01:26:16;;;;;;;4.60;3.00;;;6.20;99.90;;;;;;4972103;28;20220;-78
2021/03/19 01:28:43;;;;;;;5.33;2.77;;;6.20;99.90;;;;;;4971864;28;20206;-74
2021/03/19 01:31:11;;;;;;;10.50;3.77;;;6.20;99.90;;;;;;4972407;28;20205;-75
2021/03/19 01:33:38;;;;;;;6.07;2.47;;;6.10;99.90;;;;;;4972455;28;20210;-74
2021/03/19 01:36:06;;;;;;;6.27;3.10;;;6.10;99.90;;;;;;4969536;28;20651;-76
2021/03/19 01:38:33;;;;;;;6.30;2.93;;;6.20;99.90;;;;;;4972491;28;20225;-74
2021/03/19 01:41:00;;;;;;;5.43;3.27;;;6.20;99.90;;;;;;4971679;28;20221;-75
2021/03/19 01:43:27;;;;;;;4.80;2.80;;;6.10;99.90;;;;;;4972321;28;20275;-75
2021/03/19 01:46:34;;;;;;;6.50;2.80;;;6.00;99.90;;;;;;4969282;28;20670;-75
2021/03/19 01:49:38;;;;;;;3.47;3.07;;;6.00;99.90;;;;;;4965116;28;20689;-76
2021/03/19 01:52:42;;;;;;;3.67;2.53;;;6.00;99.90;;;;;;4960132;28;20212;-76
2021/03/19 01:55:45;;;;;;;5.33;3.20;;;6.10;99.90;;;;;;4971945;28;20209;-72
2021/03/19 01:58:49;;;;;;;6.60;3.03;;;6.10;99.90;;;;;;4960999;28;20232;-79
2021/03/19 02:01:52;;;;;;;6.73;3.10;;;6.20;99.90;;;;;;4971343;28;20209;-76
2021/03/19 02:04:56;;;;;;;6.97;3.80;;;6.10;99.90;;;;;;4967802;28;20217;-78
2021/03/19 02:08:00;;;;;;;4.33;2.57;;;6.10;99.90;;;;;;4972335;28;20205;-85
2021/03/19 02:11:04;;;;;;;5.97;2.87;;;6.10;99.90;;;;;;4962631;28;20638;-74
2021/03/19 02:14:07;;;;;;;4.53;2.63;;;6.10;99.90;;;;;;4960400;28;20681;-76
2021/03/19 02:17:11;;;;;;;5.50;3.93;;;6.00;99.90;;;;;;4971599;28;20229;-78
2021/03/19 02:20:14;;;;;;;5.90;3.10;;;6.00;99.90;;;;;;4971985;28;20205;-76
2021/03/19 02:23:18;;;;;;;4.33;2.80;;;6.00;99.90;;;;;;4971286;28;20626;-75
2021/03/19 02:26:21;;;;;;;3.50;3.17;;;6.00;99.90;;;;;;4962274;28;20209;-73
2021/03/19 02:29:25;;;;;;;5.13;2.83;;;6.00;99.90;;;;;;4959319;28;20209;-75
2021/03/19 02:32:01;;;;;;;8.90;2.93;;;6.00;99.90;;;;;;4966630;28;20205;-75
2021/03/19 02:34:33;;;;;;;4.63;2.73;;;6.00;99.90;;;;;;4971759;28;20681;-74
2021/03/19 02:36:59;;;;;;;7.83;3.40;;;6.00;99.90;;;;;;4970227;28;20233;-74
2021/03/19 02:39:26;;;;;;;5.27;3.07;;;6.00;99.90;;;;;;4971386;28;20214;-76
2021/03/19 02:41:52;;;;;;;4.53;2.70;;;5.90;99.90;;;;;;4970868;28;20205;-75
2021/03/19 02:44:19;;;;;;;7.40;3.07;;;5.90;99.90;;;;;;4971881;28;20213;-75
2021/03/19 02:46:45;;;;;;;4.60;3.60;;;5.90;99.90;;;;;;4970971;28;20209;-75
2021/03/19 02:49:13;;;;;;;8.60;2.63;;;6.00;99.90;;;;;;4971731;28;20206;-73
2021/03/19 02:51:39;;;;;;;9.23;2.80;;;6.00;99.90;;;;;;4971441;28;20220;-73
2021/03/19 02:54:06;;;;;;;6.47;2.80;;;6.00;99.90;;;;;;4971543;28;20572;-71
2021/03/19 02:56:32;;;;;;;4.63;3.07;;;6.00;99.90;;;;;;4971960;28;20229;-75
2021/03/19 02:58:59;;;;;;;6.10;2.77;;;5.90;99.90;;;;;;4960639;28;20209;-76
2021/03/19 03:01:25;;;;;;;8.63;2.80;;;5.90;99.90;;;;;;4971416;28;20209;-77
2021/03/19 03:03:51;;;;;;;6.63;3.27;;;5.90;99.90;;;;;;4970432;28;20218;-82
2021/03/19 03:06:19;;;;;;;7.73;3.10;;;5.90;99.90;;;;;;4975122;28;20209;-76
2021/03/19 03:08:46;;;;;;;6.30;3.20;;;5.90;99.90;;;;;;4974570;28;20218;-76
2021/03/19 03:11:12;;;;;;;6.13;3.37;;;5.90;99.90;;;;;;4974900;28;20595;-76
2021/03/19 03:13:39;;;;;;;3.30;2.83;;;5.90;99.90;;;;;;4975035;28;20210;-74
2021/03/19 03:16:06;;;;;;;5.83;3.00;;;5.90;99.90;;;;;;4974618;28;20640;-72
2021/03/19 03:18:33;;;;;;;6.53;4.60;;;5.90;99.90;;;;;;4974909;28;20259;-76
2021/03/19 03:21:01;;;;;;;6.07;2.97;;;5.80;99.90;;;;;;4974154;28;20210;-76
2021/03/19 03:23:29;;;;;;;7.43;3.07;;;5.90;99.90;;;;;;4974090;28;20219;-72
2021/03/19 03:25:57;;;;;;;5.53;3.67;;;5.90;99.90;;;;;;4974380;28;20222;-77
2021/03/19 03:28:25;;;;;;;4.50;3.07;;;5.90;99.90;;;;;;4974258;28;20205;-71
2021/03/19 03:30:54;;;;;;;7.07;3.30;;;5.90;99.90;;;;;;4974335;28;20288;-75
2021/03/19 03:33:21;;;;;;;7.13;3.10;;;5.90;99.90;;;;;;4974268;28;20272;-74
2021/03/19 03:35:47;;;;;;;3.90;3.27;;;5.90;99.90;;;;;;4974079;28;20264;-76
2021/03/19 03:38:18;;;;;;;6.20;2.87;;;5.90;99.90;;;;;;4974025;28;20776;-76
2021/03/19 03:40:50;;;;;;;9.20;3.77;;;5.80;99.90;;;;;;4973998;28;20224;-75
2021/03/19 03:43:18;;;;;;;9.07;3.40;;;5.90;99.90;;;;;;4974307;28;20216;-75
2021/03/19 03:45:45;;;;;;;5.43;3.60;;;5.90;99.90;;;;;;4973741;28;20702;-75
2021/03/19 03:48:14;;;;;;;8.30;3.60;;;5.90;99.90;;;;;;4968703;28;20221;-75
2021/03/19 03:50:41;;;;;;;6.30;3.83;;;5.90;99.90;;;;;;4971933;28;20216;-74
2021/03/19 03:53:09;;;;;;;7.10;3.87;;;5.80;99.90;;;;;;4974153;28;20681;-73
2021/03/19 03:55:37;;;;;;;9.07;3.50;;;5.70;99.90;;;;;;4973982;28;20237;-78
2021/03/19 03:58:06;;;;;;;7.80;4.30;;;5.70;99.90;;;;;;4974335;28;20230;-73
2021/03/19 04:00:32;;;;;;;9.47;3.10;;;5.60;99.90;;;;;;4973991;28;20209;-73
2021/03/19 04:03:00;;;;;;;6.17;3.17;;;5.60;99.90;;;;;;4972527;28;20202;-74
2021/03/19 04:05:29;;;;;;;6.97;2.87;;;5.60;99.90;;;;;;4973966;28;20217;-73
2021/03/19 04:07:55;;;;;;;6.70;3.43;;;5.60;99.90;;;;;;4973965;28;20213;-73
2021/03/19 04:10:23;;;;;;;5.80;3.07;;;5.60;99.90;;;;;;4974255;28;20213;-74
2021/03/19 04:12:49;;;;;;;6.83;4.40;;;5.50;99.90;;;;;;4973435;28;20209;-77
2021/03/19 04:15:18;;;;;;;4.77;3.23;;;5.60;99.90;;;;;;4973025;28;20216;-79
2021/03/19 04:17:46;;;;;;;7.97;3.50;;;5.60;99.90;;;;;;4972613;28;20233;-72
2021/03/19 04:20:14;;;;;;;7.30;3.43;;;5.60;99.90;;;;;;4973145;28;20697;-77
2021/03/19 04:22:41;;;;;;;13.27;4.23;;;5.50;99.90;;;;;;4973284;28;20209;-72
2021/03/19 04:25:09;;;;;;;5.83;4.27;;;5.50;99.90;;;;;;4974115;28;20220;-75
2021/03/19 04:27:41;;;;;;;7.77;3.57;;;5.50;99.90;;;;;;4973747;28;20236;-76
2021/03/19 04:30:08;;;;;;;7.73;4.00;;;5.50;99.90;;;;;;4973787;28;20217;-76
2021/03/19 04:32:36;;;;;;;5.20;2.93;;;5.50;99.90;;;;;;4974096;28;20217;-74
2021/03/19 04:35:02;;;;;;;4.77;2.40;;;5.50;99.90;;;;;;4972382;28;20285;-74
2021/03/19 04:37:31;;;;;;;7.00;3.10;;;5.50;99.90;;;;;;4971107;28;20276;-75
2021/03/19 04:39:58;;;;;;;6.40;3.07;;;5.40;99.90;;;;;;4970527;28;20745;-74
2021/03/19 04:42:24;;;;;;;7.77;3.33;;;5.50;99.90;;;;;;4972928;28;20241;-74
2021/03/19 04:44:51;;;;;;;5.00;2.90;;;5.40;99.90;;;;;;4972620;28;20213;-76
2021/03/19 04:47:17;;;;;;;8.57;3.93;;;5.40;99.90;;;;;;4967021;28;20277;-74
2021/03/19 04:49:44;;;;;;;8.33;3.40;;;5.50;99.90;;;;;;4967687;28;20623;-74
2021/03/19 04:52:11;;;;;;;12.53;2.90;;;5.50;99.90;;;;;;4973290;28;20256;-75
2021/03/19 04:54:37;;;;;;;6.13;2.73;;;5.50;99.90;;;;;;4973179;28;20213;-73
2021/03/19 04:57:04;;;;;;;10.37;2.73;;;5.50;99.90;;;;;;4972288;28;20363;-73
2021/03/19 04:59:31;;;;;;;7.47;3.50;;;5.40;99.90;;;;;;4973476;28;20578;-74
2021/03/19 05:02:00;;;;;;;10.77;3.03;;;5.40;99.90;;;;;;4972440;28;20221;-72
2021/03/19 05:04:27;;;;;;;5.33;2.77;;;5.40;99.90;;;;;;4972656;28;20229;-75
2021/03/19 05:07:00;;;;;;;5.57;2.87;;;5.40;99.90;;;;;;4972100;28;20217;-73
2021/03/19 05:09:26;;;;;;;7.23;2.90;;;5.40;99.90;;;;;;4970474;28;20213;-77
2021/03/19 05:11:53;;;;;;;7.70;2.93;;;5.50;99.90;;;;;;4972095;28;20570;-73
2021/03/19 05:14:20;;;;;;;6.07;2.60;;;5.40;99.90;;;;;;4972733;28;20206;-74
2021/03/19 05:16:47;;;;;;;5.47;2.80;;;5.50;99.90;;;;;;4972436;28;20299;-75
2021/03/19 05:19:14;;;;;;;8.40;3.97;;;5.50;99.90;;;;;;4972379;28;20681;-74
2021/03/19 05:21:41;;;;;;;8.10;3.13;;;5.50;99.90;;;;;;4972329;28;20210;-73
2021/03/19 05:24:09;;;;;;;6.87;2.90;;;5.60;99.90;;;;;;4972903;28;20209;-76
2021/03/19 05:26:37;;;;;;;7.10;3.57;;;5.60;99.90;;;;;;4972640;28;20603;-73
2021/03/19 05:29:03;;;;;;;6.67;3.30;;;5.60;99.90;;;;;;4969481;28;20255;-75
2021/03/19 05:31:30;;;;;;;5.80;3.20;;;5.50;99.90;;;;;;4960501;28;20202;-74
2021/03/19 05:33:56;;;;;;;8.00;2.97;;;5.60;99.90;;;;;;4972294;28;20209;-76
2021/03/19 05:36:27;;;;;;;8.70;3.57;;;5.50;99.90;;;;;;4972284;28;20259;-75
2021/03/19 05:38:54;;;;;;;4.53;2.70;;;5.50;99.90;;;;;;4971960;28;20224;-76
2021/03/19 05:41:26;;;;;;;6.23;3.00;;;5.50;99.90;;;;;;4969969;28;20228;-72
2021/03/19 05:43:55;;;;;;;4.33;2.93;;;5.50;99.90;;;;;;4971949;28;20206;-73
2021/03/19 05:46:24;;;;;;;9.87;4.37;;;5.50;99.90;;;;;;4971157;28;20256;-74
2021/03/19 05:48:56;;;;;;;8.37;3.20;;;5.50;99.90;;;;;;4967744;28;20209;-71
2021/03/19 05:51:31;;;;;;;5.20;3.07;;;5.50;99.90;;;;;;4971817;28;20213;-75
2021/03/19 05:54:01;;;;;;;9.67;2.70;;;5.40;99.90;;;;;;4971135;28;20201;-75
2021/03/19 05:56:31;;;;;;;10.33;3.17;;;5.30;99.90;;;;;;4971720;28;20241;-75
2021/03/19 05:58:58;;;;;;;7.93;3.13;;;5.10;99.90;;;;;;4970078;28;20217;-72
2021/03/19 06:01:25;;;;;;;6.70;3.53;;;5.10;99.90;;;;;;4962109;28;20213;-70
2021/03/19 06:03:51;;;;;;;7.27;2.13;;;5.20;99.90;;;;;;4970089;28;20216;-74
2021/03/19 06:06:18;;;;;;;5.47;3.13;;;5.10;99.90;;;;;;4972169;28;20210;-73
2021/03/19 06:08:46;;;;;;;7.77;3.67;;;5.10;99.90;;;;;;4971842;28;20217;-73
2021/03/19 06:11:25;;;;;;;6.17;3.23;;;5.10;99.90;;;;;;4971371;28;20209;-73
2021/03/19 06:13:57;;;;;;;7.03;3.10;;;5.10;99.90;;;;;;4971581;28;20708;-77
2021/03/19 06:16:40;;;;;;;5.03;3.30;;;5.20;99.90;;;;;;4971616;28;20628;-75
2021/03/19 06:19:29;;;;;;;12.40;3.87;;;5.10;99.90;;;;;;4971453;28;20216;-75
2021/03/19 06:22:20;;;;;;;6.07;2.87;;;5.10;99.90;;;;;;4966712;28;20210;-75
2021/03/19 06:24:55;;;;;;;6.90;3.63;;;5.10;99.90;;;;;;4971152;28;20216;-74
2021/03/19 06:27:25;;;;;;;5.70;3.10;;;5.10;99.90;;;;;;4971887;28;20208;-83
2021/03/19 06:29:56;;;;;;;7.00;3.10;;;5.10;99.90;;;;;;4966798;28;20685;-75
2021/03/19 06:32:28;;;;;;;8.57;3.67;;;5.20;99.90;;;;;;4970002;28;20682;-74
2021/03/19 06:35:00;;;;;;;7.23;3.47;;;5.20;99.90;;;;;;4970481;28;20693;-77
2021/03/19 06:37:33;;;;;;;9.43;3.50;;;5.20;99.90;;;;;;4968376;28;20240;-78
2021/03/19 06:40:05;;;;;;;10.57;3.40;;;5.10;99.90;;;;;;4965996;28;20206;-78
2021/03/19 06:42:38;;;;;;;8.17;4.90;;;5.10;99.90;;;;;;4965880;28;20220;-77
2021/03/19 06:45:19;;;;;;;12.77;4.43;;;5.10;99.90;;;;;;4973754;28;20874;-72
2021/03/19 06:47:49;;;;;;;9.30;4.50;;;5.20;99.90;;;;;;4973163;28;20217;-73
2021/03/19 06:50:38;;;;;;;8.93;4.20;;;5.20;99.90;;;;;;4970992;28;20263;-74
2021/03/19 06:53:21;;;;;;;9.20;4.20;;;5.20;99.90;;;;;;4971726;28;20214;-76
2021/03/19 06:55:53;;;;;;;6.13;3.23;;;5.30;99.90;;;;;;4968815;28;20626;-77
2021/03/19 06:58:35;;;;;;;9.40;3.70;;;5.30;99.90;;;;;;4972487;28;20228;-77
2021/03/19 07:01:03;;;;;;;7.33;3.27;;;5.20;99.90;;;;;;4964730;28;20205;-78
2021/03/19 07:04:08;;;;;;;5.90;3.77;;;5.20;99.90;;;;;;4972663;28;20272;-76
2021/03/19 07:06:54;;;;;;;7.13;3.40;;;5.30;99.90;;;;;;4959068;28;20205;-73
2021/03/19 07:09:34;;;;;;;7.47;4.47;;;5.20;99.90;;;;;;4967098;28;20611;-75
2021/03/19 07:12:17;;;;;;;9.00;3.73;;;5.20;99.90;;;;;;4971407;28;20205;-78
2021/03/19 07:15:16;;;;;;;6.20;3.80;;;5.30;99.90;;;;;;4972622;28;20276;-73
2021/03/19 07:17:53;;;;;;;8.50;4.07;;;5.30;99.90;;;;;;4967121;28;20288;-77
2021/03/19 07:20:45;;;;;;;8.50;3.90;;;5.20;99.90;;;;;;4971796;28;20205;-77
2021/03/19 07:23:15;;;;;;;8.83;5.10;;;5.20;99.90;;;;;;4971776;28;20249;-73
2021/03/19 07:26:03;;;;;;;8.03;3.63;;;5.20;99.90;;;;;;4969753;28;20206;-73
2021/03/19 07:28:50;;;;;;;8.37;4.23;;;5.20;99.90;;;;;;4970377;28;20208;-74
2021/03/19 07:31:53;;;;;;;6.57;3.40;;;5.30;99.90;;;;;;4970696;28;20272;-69
2021/03/19 07:34:49;;;;;;;8.57;4.03;;;5.30;99.90;;;;;;4966269;28;20206;-76
2021/03/19 07:37:40;;;;;;;8.63;4.20;;;5.30;99.90;;;;;;4969128;28;20252;-76
2021/03/19 07:40:27;;;;;;;12.13;4.47;;;5.20;99.90;;;;;;4974187;28;20205;-74
2021/03/19 07:43:13;;;;;;;13.20;4.43;;;5.30;99.90;;;;;;4971563;28;20205;-74
2021/03/19 07:45:49;;;;;;;12.07;4.10;;;5.40;99.90;;;;;;4972538;28;20280;-73
2021/03/19 07:48:25;;;;;;;6.90;3.20;;;5.40;99.90;;;;;;4971609;28;20224;-69
2021/03/19 07:51:28;;;;;;;11.07;4.77;;;5.20;99.90;;;;;;4968374;28;20772;-71
2021/03/19 07:54:01;;;;;;;4.40;3.40;;;5.20;99.90;;;;;;4971448;28;20260;-72
2021/03/19 07:56:48;;;;;;;6.60;3.83;;;5.10;99.90;;;;;;4970992;28;20210;-75
2021/03/19 07:59:23;;;;;;;5.27;3.03;;;5.10;99.90;;;;;;4971510;28;20262;-74
2021/03/19 08:01:58;;;;;;;4.43;2.90;;;5.00;99.90;;;;;;4972787;28;20197;-77
2021/03/19 08:04:34;;;;;;;5.10;3.47;;;5.10;99.90;;;;;;4971816;28;20673;-71
2021/03/19 08:07:18;;;;;;;3.53;2.50;;;5.00;99.90;;;;;;4965641;28;20209;-78
2021/03/19 08:09:52;;;;;;;4.03;2.80;;;5.10;99.90;;;;;;4969435;28;20208;-74
2021/03/19 08:12:23;;;;;;;4.87;3.47;;;5.10;99.90;;;;;;4973078;28;20213;-73
2021/03/19 08:15:04;;;;;;;5.47;2.83;;;5.10;99.90;;;;;;4972636;28;20683;-69
2021/03/19 08:17:52;;;;;;;6.70;3.10;;;5.00;99.90;;;;;;4973139;28;20252;-72
2021/03/19 08:20:53;;;;;;;6.17;3.23;;;5.00;99.90;;;;;;4972320;28;20212;-75
2021/03/19 08:23:31;;;;;;;4.23;3.00;;;5.10;99.90;;;;;;4962457;28;20259;-73
2021/03/19 08:25:57;;;;;;;2.73;2.53;;;5.10;99.90;;;;;;4971708;28;20205;-75
2021/03/19 08:28:32;;;;;;;5.07;3.10;;;5.00;99.90;;;;;;4969355;28;20217;-74
2021/03/19 08:31:08;;;;;;;3.43;2.03;;;5.00;99.90;;;;;;4970913;28;20217;-75
2021/03/19 08:33:53;;;;;;;3.10;2.80;;;5.10;99.90;;;;;;4970725;28;20293;-74
2021/03/19 08:36:28;;;;;;;4.37;2.30;;;5.00;99.90;;;;;;4968416;28;20201;-75
2021/03/19 08:39:03;;;;;;;4.33;2.90;;;5.00;99.90;;;;;;4971491;28;20236;-73
2021/03/19 08:41:40;;;;;;;2.70;2.50;;;5.00;99.90;;;;;;4973226;28;20252;-75
2021/03/19 08:44:12;;;;;;;3.03;2.53;;;5.00;99.90;;;;;;4967475;28;20221;-74
2021/03/19 08:46:49;;;;;;;4.37;3.27;;;5.00;99.90;;;;;;4971261;28;20209;-71
2021/03/19 08:49:35;;;;;;;3.80;2.50;;;5.20;99.90;;;;;;4963908;28;20209;-73
2021/03/19 08:52:22;;;;;;;9.53;5.07;;;5.30;99.90;;;;;;4968969;28;20218;-67
2021/03/19 08:55:23;;;;;;;3.23;1.93;;;5.30;99.90;;;;;;4970223;28;20220;-72
2021/03/19 08:57:52;;;;;;;1.77;1.67;;;5.30;99.90;;;;;;4968908;28;20225;-70
2021/03/19 09:00:48;;;;;;;3.83;2.07;;;5.30;99.90;;;;;;4970371;28;20205;-71
2021/03/19 09:03:55;;;;;;;1.63;1.50;;;5.20;99.90;;;;;;4968795;28;20666;-72
2021/03/19 09:06:34;;;;;;;2.53;1.73;;;5.10;99.90;;;;;;4890804;29;20209;-72
2021/03/19 09:09:37;;;;;;;3.30;1.87;;;5.10;99.90;;;;;;4887503;29;20220;-74
2021/03/19 09:12:21;;;;;;;3.03;2.27;;;5.30;99.90;;;;;;4957367;28;20292;-74
2021/03/19 09:14:54;;;;;;;2.47;2.00;;;5.40;99.90;;;;;;4964825;28;20204;-74
2021/03/19 09:17:55;;;;;;;1.80;1.70;;;5.40;99.90;;;;;;4970196;28;20241;-71
2021/03/19 09:20:58;;;;;;;2.80;2.13;;;5.40;99.90;;;;;;4970614;28;20252;-76
2021/03/19 09:23:28;;;;;;;1.83;1.23;;;5.30;99.90;;;;;;4971180;28;20682;-72
2021/03/19 09:25:56;;;;;;;2.23;1.87;;;5.40;99.90;;;;;;4968240;28;20205;-71
2021/03/19 09:28:58;;;;;;;3.17;2.87;;;5.50;99.90;;;;;;4972047;28;20265;-71
2021/03/19 09:31:41;;;;;;;2.47;2.27;;;5.50;99.90;;;;;;4970540;28;20800;-76
2021/03/19 09:34:23;;;;;;;1.70;1.60;;;5.60;99.90;;;;;;4968628;28;20613;-74
2021/03/19 09:37:08;;;;;;;3.70;2.47;;;5.50;99.90;;;;;;4969876;28;20201;-78
2021/03/19 09:40:03;;;;;;;2.27;1.50;;;5.40;99.90;;;;;;4967930;28;20213;-84
2021/03/19 09:42:46;;;;;;;3.50;2.30;;;5.60;99.90;;;;;;4970972;28;20213;-77
2021/03/19 09:45:28;;;;;;;3.23;1.57;;;5.80;99.90;;;;;;4970917;28;20253;-82
2021/03/19 09:48:25;;;;;;;3.20;2.03;;;5.70;99.90;;;;;;4971168;28;20581;-81
2021/03/19 09:51:23;;;;;;;3.17;2.50;;;5.80;99.90;;;;;;4967935;28;20260;-82
2021/03/19 09:53:50;;;;;;;2.20;2.00;;;6.10;99.90;;;;;;4967595;28;20209;-84
2021/03/19 09:56:20;;;;;;;2.70;1.40;;;6.10;99.90;;;;;;4971771;28;20213;-80
2021/03/19 09:58:49;;;;;;;2.83;2.33;;;6.10;99.90;;;;;;4966000;28;20230;-81
2021/03/19 10:01:32;;;;;;;3.23;2.50;;;6.30;99.90;;;;;;4971659;28;20205;-79
2021/03/19 10:04:01;;;;;;;2.63;1.70;;;6.30;99.90;;;;;;4971286;28;20560;-79
2021/03/19 10:06:34;;;;;;;4.40;2.53;;;6.20;99.90;;;;;;4971635;28;20213;-81
2021/03/19 10:09:10;;;;;;;2.13;1.93;;;6.20;99.90;;;;;;4971679;28;20263;-81
2021/03/19 10:11:59;;;;;;;3.07;2.23;;;6.30;99.90;;;;;;4971403;28;20233;-75
2021/03/19 10:14:30;;;;;;;4.70;2.77;;;6.00;99.90;;;;;;4968486;28;20202;-84
2021/03/19 10:17:26;;;;;;;2.40;2.17;;;5.90;99.90;;;;;;4962973;28;20209;-80
2021/03/19 10:19:58;;;;;;;2.50;2.30;;;6.00;99.90;;;;;;4969853;28;20264;-83
2021/03/19 10:22:46;;;;;;;2.60;2.33;;;5.80;99.90;;;;;;4969725;28;20209;-79
2021/03/19 10:25:30;;;;;;;2.77;2.03;;;5.80;99.90;;;;;;4965620;28;20249;-83
2021/03/19 10:27:59;;;;;;;2.73;1.83;;;5.90;99.90;;;;;;4971405;28;20205;-82
2021/03/19 10:30:31;;;;;;;3.63;2.73;;;5.90;99.90;;;;;;4971978;28;20598;-87
2021/03/19 10:33:03;;;;;;;2.10;1.83;;;5.80;99.90;;;;;;4969670;28;20608;-82
2021/03/19 10:35:34;;;;;;;2.83;2.33;;;5.70;99.90;;;;;;4971746;28;20232;-80
2021/03/19 10:38:10;;;;;;;3.90;2.73;;;5.70;99.90;;;;;;4968480;28;20603;-82
2021/03/19 10:40:38;;;;;;;3.90;2.73;;;5.80;99.90;;;;;;4971564;28;20268;-79
2021/03/19 10:43:13;;;;;;;5.03;2.73;;;5.80;99.90;;;;;;4971536;28;20214;-84
2021/03/19 10:45:50;;;;;;;3.87;2.93;;;5.70;99.90;;;;;;4971013;28;20216;-78
2021/03/19 10:48:23;;;;;;;3.77;3.10;;;5.60;99.90;;;;;;4970656;28;20217;-81
2021/03/19 10:51:06;;;;;;;4.10;2.80;;;5.70;99.90;;;;;;4970139;28;20213;-75
2021/03/19 10:53:43;;;;;;;5.57;3.60;;;5.80;99.90;;;;;;4964025;28;20214;-77
2021/03/19 10:56:10;;;;;;;3.67;3.37;;;5.70;99.90;;;;;;4965236;28;20589;-80
2021/03/19 10:58:43;;;;;;;2.97;2.67;;;5.70;99.90;;;;;;4969738;28;20244;-79
2021/03/19 11:01:44;;;;;;;3.30;2.40;;;5.80;99.90;;;;;;4964311;28;20221;-86
2021/03/19 11:04:33;;;;;;;3.57;2.70;;;5.80;99.90;;;;;;4964861;28;20260;-80
2021/03/19 11:07:00;;;;;;;4.67;3.00;;;5.90;99.90;;;;;;4964404;28;20216;-76
2021/03/19 11:09:28;;;;;;;4.10;3.80;;;5.90;99.90;;;;;;4963167;28;20213;-78
2021/03/19 11:11:57;;;;;;;4.00;2.97;;;6.10;99.90;;;;;;4966107;28;20224;-82
2021/03/19 11:14:27;;;;;;;5.30;3.20;;;6.40;99.90;;;;;;4967754;28;20209;-77
2021/03/19 11:16:56;;;;;;;4.17;3.10;;;6.60;99.90;;;;;;4968125;28;20214;-76
2021/03/19 11:19:24;;;;;;;4.23;3.10;;;7.00;99.90;;;;;;4958726;28;20206;-82
2021/03/19 11:22:02;;;;;;;4.33;3.93;;;7.10;99.90;;;;;;4960180;28;20206;-77
2021/03/19 11:24:34;;;;;;;4.00;3.23;;;7.10;99.90;;;;;;4966255;28;20677;-75
2021/03/19 11:27:13;;;;;;;3.30;2.90;;;6.60;99.90;;;;;;4967481;28;20217;-79
2021/03/19 11:29:42;;;;;;;6.23;4.17;;;6.40;99.90;;;;;;4968609;28;20202;-72
2021/03/19 11:32:31;;;;;;;5.67;3.47;;;6.30;99.90;;;;;;4971081;28;20233;-78
2021/03/19 11:35:12;;;;;;;4.20;3.77;;;6.30;99.90;;;;;;4963802;28;20581;-80
2021/03/19 11:37:42;;;;;;;3.63;2.80;;;6.40;99.90;;;;;;4955356;29;20237;-73
2021/03/19 11:40:15;;;;;;;3.77;3.33;;;6.40;99.90;;;;;;4956273;28;20210;-73
2021/03/19 11:42:47;;;;;;;4.13;2.93;;;6.40;99.90;;;;;;4957983;28;20210;-79
2021/03/19 11:45:16;;;;;;;5.43;4.07;;;6.50;99.90;;;;;;4974901;28;20202;-76
2021/03/19 11:47:46;;;;;;;5.23;4.03;;;6.50;99.90;;;;;;4974827;28;20213;-77
2021/03/19 11:50:29;;;;;;;6.60;4.60;;;6.50;99.90;;;;;;4975230;28;20222;-71
2021/03/19 11:52:59;;;;;;;5.13;3.90;;;6.70;99.90;;;;;;4956881;28;20225;-74
2021/03/19 11:55:29;;;;;;;13.57;6.27;;;6.80;99.90;;;;;;4955515;28;20206;-76
2021/03/19 11:57:55;;;;;;;6.27;4.23;;;6.80;99.90;;;;;;4958302;28;20240;-75
2021/03/19 12:00:25;;;;;;;12.23;6.30;;;6.80;99.90;;;;;;4975103;28;20209;-80
2021/03/19 12:02:55;;;;;;;13.23;7.53;;;6.90;99.90;;;;;;4968056;28;20205;-73
2021/03/19 12:05:22;;;;;;;13.43;6.87;;;7.10;99.90;;;;;;4955491;29;20261;-78
2021/03/19 12:07:48;;;;;;;10.13;6.43;;;7.30;99.90;;;;;;4955360;28;20215;-79
2021/03/19 12:10:19;;;;;;;10.63;8.70;;;7.30;99.90;;;;;;4955106;28;20210;-80
2021/03/19 12:12:46;;;;;;;7.20;6.47;;;7.40;99.90;;;;;;4968941;28;20209;-78
2021/03/19 12:15:17;;;;;;;5.57;5.00;;;7.40;99.90;;;;;;4957535;28;20207;-77
2021/03/19 12:17:44;;;;;;;7.00;4.87;;;7.30;99.90;;;;;;4973487;28;20232;-83
2021/03/19 12:20:12;;;;;;;5.13;4.63;;;7.20;99.90;;;;;;4973870;28;20221;-82
2021/03/19 12:22:40;;;;;;;5.70;4.57;;;7.10;99.90;;;;;;4974150;28;20670;-77
2021/03/19 12:25:08;;;;;;;4.40;3.57;;;7.10;99.90;;;;;;4974791;28;20209;-80
2021/03/19 12:27:35;;;;;;;5.80;4.63;;;7.20;99.90;;;;;;4955980;28;20705;-78
2021/03/19 12:30:01;;;;;;;5.30;4.57;;;7.10;99.90;;;;;;4965722;28;20216;-87
2021/03/19 12:32:28;;;;;;;7.53;5.63;;;7.00;99.90;;;;;;4971074;28;20210;-82
2021/03/19 12:34:54;;;;;;;4.80;4.27;;;7.00;99.90;;;;;;4971904;28;20205;-79
2021/03/19 12:37:21;;;;;;;7.17;5.30;;;6.90;99.90;;;;;;4953980;28;20206;-77
2021/03/19 12:39:47;;;;;;;8.30;7.10;;;6.90;99.90;;;;;;4954750;28;20265;-75
2021/03/19 12:42:14;;;;;;;7.83;6.40;;;7.00;99.90;;;;;;4974269;28;20690;-77
2021/03/19 12:44:41;;;;;;;8.60;6.07;;;6.80;99.90;;;;;;4973545;28;20256;-78
2021/03/19 12:47:08;;;;;;;5.23;4.73;;;6.90;99.90;;;;;;4964765;28;20219;-73
2021/03/19 12:49:34;;;;;;;6.80;5.20;;;6.80;99.90;;;;;;4973558;28;20264;-75
2021/03/19 12:52:01;;;;;;;7.33;4.90;;;6.80;99.90;;;;;;4971766;28;20213;-85
2021/03/19 12:54:27;;;;;;;5.57;4.20;;;6.60;99.90;;;;;;4960048;28;20218;-84
2021/03/19 12:56:54;;;;;;;6.13;4.67;;;6.60;99.90;;;;;;4953978;28;20265;-82
2021/03/19 12:59:20;;;;;;;8.23;5.20;;;7.10;99.90;;;;;;4968662;28;20288;-75
2021/03/19 13:01:48;;;;;;;7.07;4.40;;;7.70;99.90;;;;;;4972649;28;20211;-70
2021/03/19 13:04:14;;;;;;;7.10;5.40;;;8.30;99.90;;;;;;4972381;28;20700;-77
2021/03/19 13:06:41;;;;;;;4.37;3.87;;;8.50;99.90;;;;;;4973045;28;20202;-71
2021/03/19 13:09:12;;;;;;;6.37;4.87;;;8.80;99.90;;;;;;4970546;28;20689;-69
2021/03/19 13:11:38;;;;;;;5.27;4.40;;;9.20;99.90;;;;;;4963587;28;20206;-71
2021/03/19 13:14:05;;;;;;;6.67;4.33;;;9.50;99.90;;;;;;4962089;28;20214;-75
2021/03/19 13:16:31;;;;;;;5.17;4.67;;;9.70;99.90;;;;;;4965196;28;20238;-71
2021/03/19 13:19:00;;;;;;;4.37;3.70;;;9.90;99.90;;;;;;4953216;28;20729;-82
2021/03/19 13:21:27;;;;;;;4.63;3.90;;;10.10;99.90;;;;;;4954099;28;20289;-73
2021/03/19 13:23:54;;;;;;;3.43;3.13;;;10.90;99.90;;;;;;4965680;28;20202;-73
2021/03/19 13:26:21;;;;;;;5.27;3.93;;;10.80;99.90;;;;;;4968192;28;20708;-77
2021/03/19 13:28:47;;;;;;;4.27;3.40;;;10.60;99.90;;;;;;4972394;28;20686;-73
2021/03/19 13:31:14;;;;;;;5.60;4.23;;;10.50;99.90;;;;;;4972270;28;20210;-71